createdAt,value
2022-09-18T00:01:44.705Z,1.60
2022-09-18T00:04:16.570Z,1.50
2022-09-18T00:06:45.506Z,1.13
2022-09-18T00:09:15.436Z,1.10
2022-09-18T00:11:47.960Z,1.25
2022-09-18T00:14:21.503Z,1.38
2022-09-18T00:16:50.111Z,1.38
2022-09-18T00:19:18.018Z,1.45
2022-09-18T00:21:48.357Z,1.20
2022-09-18T00:24:17.944Z,1.08
2022-09-18T00:26:46.361Z,1.10
2022-09-18T00:29:15.155Z,1.10
2022-09-18T00:31:42.964Z,1.35
2022-09-18T00:34:14.992Z,1.10
2022-09-18T00:36:42.884Z,1.17
2022-09-18T00:39:11.343Z,1.10
2022-09-18T00:41:41.384Z,1.40
2022-09-18T00:44:39.894Z,1.00
2022-09-18T00:47:20.746Z,0.90
2022-09-18T00:50:23.845Z,1.05
2022-09-18T00:52:57.444Z,1.02
2022-09-18T00:55:41.282Z,1.00
2022-09-18T00:58:09.739Z,0.90
2022-09-18T01:03:24.135Z,1.08
2022-09-18T01:05:51.368Z,1.23
2022-09-18T01:08:44.095Z,1.00
2022-09-18T01:11:28.247Z,1.10
2022-09-18T01:14:27.661Z,1.05
2022-09-18T01:17:16.746Z,1.00
2022-09-18T01:20:05.646Z,1.20
2022-09-18T01:22:48.319Z,1.05
2022-09-18T01:25:29.128Z,1.10
2022-09-18T01:28:19.438Z,0.98
2022-09-18T01:30:53.152Z,0.93
2022-09-18T01:33:39.344Z,1.20
2022-09-18T01:36:12.648Z,0.95
2022-09-18T01:38:50.022Z,1.52
2022-09-18T01:41:26.372Z,1.00
2022-09-18T01:44:10.324Z,1.00
2022-09-18T01:46:42.005Z,1.02
2022-09-18T01:49:17.274Z,1.10
2022-09-18T01:52:05.443Z,0.93
2022-09-18T01:54:38.553Z,1.05
2022-09-18T01:57:15.207Z,1.23
2022-09-18T02:00:07.603Z,1.05
2022-09-18T02:02:55.376Z,1.13
2022-09-18T02:05:59.279Z,1.38
2022-09-18T02:08:30.283Z,1.13
2022-09-18T02:11:07.606Z,1.13
2022-09-18T02:13:43.464Z,1.00
2022-09-18T02:16:18.505Z,7.68
2022-09-18T02:18:54.090Z,0.85
2022-09-18T02:21:30.433Z,8.35
2022-09-18T02:24:04.568Z,25.58
2022-09-18T02:26:35.459Z,21.80
2022-09-18T02:29:05.105Z,21.33
2022-09-18T02:31:33.538Z,1.38
2022-09-18T02:34:01.026Z,24.13
2022-09-18T02:37:19.318Z,7.65
2022-09-18T02:40:04.317Z,2.00
2022-09-18T02:42:44.040Z,4.05
2022-09-18T02:45:34.598Z,3.37
2022-09-18T02:48:20.438Z,1.17
2022-09-18T02:50:59.355Z,1.20
2022-09-18T02:53:52.181Z,1.40
2022-09-18T02:56:41.597Z,0.82
2022-09-18T02:59:21.202Z,0.90
2022-09-18T03:01:56.015Z,1.05
2022-09-18T03:04:27.649Z,0.93
2022-09-18T03:07:03.370Z,1.33
2022-09-18T03:12:03.010Z,1.17
2022-09-18T03:14:35.652Z,3.90
2022-09-18T03:17:03.471Z,0.88
2022-09-18T03:19:32.283Z,1.27
2022-09-18T03:22:01.692Z,2.20
2022-09-18T03:24:33.114Z,1.55
2022-09-18T03:27:03.218Z,1.23
2022-09-18T03:29:30.648Z,2.03
2022-09-18T03:31:58.656Z,1.65
2022-09-18T03:34:26.012Z,1.33
2022-09-18T03:36:53.239Z,10.15
2022-09-18T03:39:20.848Z,9.05
2022-09-18T03:41:50.998Z,4.53
2022-09-18T03:44:19.052Z,7.63
2022-09-18T03:46:47.074Z,1.92
2022-09-18T03:49:15.045Z,5.70
2022-09-18T03:51:43.880Z,6.70
2022-09-18T03:54:12.624Z,8.38
2022-09-18T03:56:57.919Z,7.65
2022-09-18T03:59:44.042Z,3.15
2022-09-18T04:02:46.689Z,15.65
2022-09-18T04:05:32.270Z,1.10
2022-09-18T04:08:19.396Z,0.93
2022-09-18T04:10:48.422Z,0.80
2022-09-18T04:13:16.699Z,0.80
2022-09-18T04:15:50.037Z,0.90
2022-09-18T04:18:18.770Z,0.52
2022-09-18T04:20:46.407Z,0.82
2022-09-18T04:23:14.847Z,1.10
2022-09-18T04:25:43.193Z,1.02
2022-09-18T04:28:11.515Z,0.93
2022-09-18T04:30:45.832Z,0.93
2022-09-18T04:33:15.884Z,1.20
2022-09-18T04:35:43.848Z,1.30
2022-09-18T04:38:11.887Z,1.25
2022-09-18T04:40:39.307Z,1.02
2022-09-18T04:43:06.776Z,0.98
2022-09-18T04:45:37.294Z,1.00
2022-09-18T04:48:05.651Z,0.93
2022-09-18T04:50:33.469Z,1.20
2022-09-18T04:53:09.865Z,0.90
2022-09-18T04:55:37.299Z,0.70
2022-09-18T04:58:04.630Z,0.90
2022-09-18T05:00:40.979Z,0.60
2022-09-18T05:03:10.562Z,0.95
2022-09-18T05:05:41.508Z,1.15
2022-09-18T05:08:10.893Z,0.90
2022-09-18T05:10:38.145Z,0.70
2022-09-18T05:13:06.173Z,0.90
2022-09-18T05:15:41.556Z,1.00
2022-09-18T05:18:12.045Z,0.90
2022-09-18T05:20:39.741Z,1.00
2022-09-18T05:23:08.849Z,1.00
2022-09-18T05:25:37.441Z,1.10
2022-09-18T05:28:05.130Z,1.15
2022-09-18T05:30:45.445Z,0.77
2022-09-18T05:33:14.888Z,0.93
2022-09-18T05:35:43.114Z,0.82
2022-09-18T05:38:11.827Z,0.88
2022-09-18T05:40:43.549Z,0.82
2022-09-18T05:43:10.977Z,1.00
2022-09-18T05:45:48.720Z,1.00
2022-09-18T05:48:24.459Z,0.90
2022-09-18T05:50:54.168Z,0.70
2022-09-18T05:53:27.596Z,0.90
2022-09-18T05:56:03.080Z,0.77
2022-09-18T05:58:32.054Z,0.90
2022-09-18T06:01:01.672Z,1.00
2022-09-18T06:03:43.899Z,1.15
2022-09-18T06:06:13.637Z,1.10
2022-09-18T06:08:41.216Z,0.88
2022-09-18T06:11:08.709Z,1.50
2022-09-18T06:13:37.779Z,1.50
2022-09-18T06:16:07.828Z,14.05
2022-09-18T06:18:49.290Z,10.30
2022-09-18T06:21:16.842Z,21.45
2022-09-18T06:23:45.029Z,1.27
2022-09-18T06:26:38.928Z,1.30
2022-09-18T06:29:07.230Z,47.28
2022-09-18T06:31:45.802Z,8.77
2022-09-18T06:34:18.885Z,7.32
2022-09-18T06:36:47.476Z,110.53
2022-09-18T06:39:35.540Z,64.50
2022-09-18T06:42:04.911Z,1.58
2022-09-18T06:44:48.510Z,14.18
2022-09-18T06:47:17.607Z,2.60
2022-09-18T06:49:47.071Z,1.98
2022-09-18T06:52:16.885Z,2.10
2022-09-18T06:54:44.489Z,4.25
2022-09-18T06:57:23.736Z,2.22
2022-09-18T06:59:51.369Z,1.85
2022-09-18T07:02:19.764Z,2.10
2022-09-18T07:05:07.898Z,3.95
2022-09-18T07:07:38.455Z,3.47
2022-09-18T07:10:09.253Z,2.60
2022-09-18T07:12:41.479Z,4.07
2022-09-18T07:15:10.340Z,4.00
2022-09-18T07:17:38.976Z,1.65
2022-09-18T07:20:07.498Z,3.30
2022-09-18T07:22:41.722Z,2.90
2022-09-18T07:25:12.546Z,10.68
2022-09-18T07:27:43.304Z,2.38
2022-09-18T07:30:12.234Z,6.57
2022-09-18T07:32:39.469Z,9.75
2022-09-18T07:35:13.818Z,3.00
2022-09-18T07:37:42.309Z,1.92
2022-09-18T07:40:34.903Z,1.13
2022-09-18T07:43:10.648Z,2.15
2022-09-18T07:45:49.059Z,1.52
2022-09-18T07:48:16.871Z,3.42
2022-09-18T07:50:48.574Z,62.08
2022-09-18T07:53:18.664Z,5.45
2022-09-18T07:55:49.542Z,1.05
2022-09-18T07:58:17.295Z,1.55
2022-09-18T08:00:54.636Z,1.38
2022-09-18T08:03:32.180Z,1.52
2022-09-18T08:06:28.973Z,3.08
2022-09-18T08:09:06.971Z,1.67
2022-09-18T08:11:52.998Z,1.90
2022-09-18T08:14:40.808Z,1.08
2022-09-18T08:17:17.441Z,1.50
2022-09-18T08:20:20.261Z,1.40
2022-09-18T08:22:54.723Z,1.52
2022-09-18T08:25:27.883Z,1.58
2022-09-18T08:28:01.977Z,1.60
2022-09-18T08:30:44.467Z,1.27
2022-09-18T08:33:13.581Z,1.73
2022-09-18T08:35:41.578Z,1.60
2022-09-18T08:38:20.550Z,1.27
2022-09-18T08:41:29.568Z,2.03
2022-09-18T08:43:58.010Z,1.92
2022-09-18T08:47:17.904Z,1.80
2022-09-18T08:50:24.932Z,1.35
2022-09-18T08:53:03.133Z,1.80
2022-09-18T08:55:56.170Z,1.27
2022-09-18T08:59:01.130Z,1.50
2022-09-18T09:01:56.488Z,1.63
2022-09-18T09:04:28.699Z,1.20
2022-09-18T09:07:20.699Z,1.40
2022-09-18T09:10:33.694Z,1.08
2022-09-18T09:13:20.630Z,1.40
2022-09-18T09:15:59.776Z,1.48
2022-09-18T09:19:03.631Z,3.78
2022-09-18T09:21:50.787Z,1.83
2022-09-18T09:24:34.508Z,1.73
2022-09-18T09:27:27.723Z,1.08
2022-09-18T09:30:38.971Z,3.17
2022-09-18T09:33:20.987Z,3.30
2022-09-18T09:36:24.809Z,2.60
2022-09-18T09:39:05.253Z,3.00
2022-09-18T09:41:49.286Z,2.85
2022-09-18T09:44:23.205Z,3.20
2022-09-18T09:47:29.475Z,1.88
2022-09-18T09:50:09.164Z,2.00
2022-09-18T09:55:13.372Z,1.92
2022-09-18T09:57:50.614Z,2.85
2022-09-18T10:00:20.434Z,5.53
2022-09-18T10:03:13.265Z,1.42
2022-09-18T10:05:49.275Z,1.17
2022-09-18T10:08:27.864Z,1.60
2022-09-18T10:11:01.851Z,2.20
2022-09-18T10:14:10.317Z,2.42
2022-09-18T10:16:43.136Z,2.15
2022-09-18T10:19:18.992Z,6.45
2022-09-18T10:21:50.083Z,2.25
2022-09-18T10:24:39.150Z,35.65
2022-09-18T10:27:14.308Z,1.35
2022-09-18T10:29:43.886Z,1.50
2022-09-18T10:32:36.923Z,1.98
2022-09-18T10:35:30.767Z,1.42
2022-09-18T10:37:59.701Z,2.67
2022-09-18T10:40:40.479Z,1.85
2022-09-18T10:43:18.949Z,1.30
2022-09-18T10:45:57.539Z,1.35
2022-09-18T10:48:33.866Z,1.40
2022-09-18T10:51:04.801Z,1.23
2022-09-18T10:53:45.679Z,1.50
2022-09-18T10:56:23.345Z,1.35
2022-09-18T10:58:54.097Z,1.50
2022-09-18T11:01:25.402Z,1.30
2022-09-18T11:04:01.753Z,1.58
2022-09-18T11:06:35.228Z,1.58
2022-09-18T11:09:39.050Z,1.42
2022-09-18T11:12:21.683Z,1.50
2022-09-18T11:14:59.473Z,1.55
2022-09-18T11:17:33.501Z,2.05
2022-09-18T11:20:05.531Z,1.90
2022-09-18T11:22:51.740Z,1.48
2022-09-18T11:25:29.056Z,1.58
2022-09-18T11:28:27.456Z,1.30
2022-09-18T11:31:04.309Z,1.83
2022-09-18T11:33:43.820Z,1.50
2022-09-18T11:36:23.078Z,1.20
2022-09-18T11:38:51.486Z,1.42
2022-09-18T11:41:44.209Z,1.50
2022-09-18T11:44:18.324Z,1.30
2022-09-18T11:47:16.015Z,1.20
2022-09-18T11:50:04.837Z,1.20
2022-09-18T11:52:47.674Z,1.40
2022-09-18T11:55:27.996Z,1.30
2022-09-18T11:58:29.983Z,1.30
2022-09-18T12:01:27.034Z,1.23
2022-09-18T12:04:25.611Z,1.50
2022-09-18T12:07:06.274Z,1.35
2022-09-18T12:09:36.092Z,1.35
2022-09-18T12:14:58.558Z,1.10
2022-09-18T12:17:45.144Z,1.40
2022-09-18T12:20:34.202Z,1.30
2022-09-18T12:23:04.981Z,1.50
2022-09-18T12:26:09.748Z,1.40
2022-09-18T12:29:27.068Z,1.42
2022-09-18T12:32:16.790Z,1.75
2022-09-18T12:34:50.377Z,1.40
2022-09-18T12:37:39.559Z,1.50
2022-09-18T12:40:14.772Z,1.67
2022-09-18T12:42:45.166Z,1.70
2022-09-18T12:48:46.918Z,1.70
2022-09-18T12:51:56.897Z,1.45
2022-09-18T12:57:13.730Z,1.42
2022-09-18T13:00:11.784Z,1.52
2022-09-18T13:02:53.090Z,1.67
2022-09-18T13:05:39.323Z,1.40
2022-09-18T13:08:09.450Z,1.70
2022-09-18T13:10:43.057Z,1.60
2022-09-18T13:13:16.803Z,1.40
2022-09-18T13:16:02.428Z,1.27
2022-09-18T13:19:04.645Z,1.40
2022-09-18T13:21:41.997Z,1.83
2022-09-18T13:24:22.882Z,1.60
2022-09-18T13:26:52.305Z,1.80
2022-09-18T13:29:53.446Z,1.30
2022-09-18T13:32:46.393Z,1.38
2022-09-18T13:35:14.011Z,1.50
2022-09-18T13:37:43.115Z,1.50
2022-09-18T13:40:44.658Z,1.30
2022-09-18T13:43:34.190Z,1.45
2022-09-18T13:46:11.099Z,1.70
2022-09-18T13:48:44.438Z,1.33
2022-09-18T13:51:29.565Z,1.52
2022-09-18T13:54:19.146Z,2.25
2022-09-18T13:57:04.760Z,1.80
2022-09-18T13:59:46.378Z,1.50
2022-09-18T14:05:10.073Z,1.52
2022-09-18T14:07:56.777Z,1.98
2022-09-18T14:10:38.371Z,1.70
2022-09-18T14:13:28.804Z,1.92
2022-09-18T14:18:32.079Z,1.70
2022-09-18T14:21:19.804Z,1.58
2022-09-18T14:23:47.159Z,1.35
2022-09-18T14:26:34.138Z,1.30
2022-09-18T14:29:17.850Z,1.50
2022-09-18T14:31:48.480Z,1.23
2022-09-18T14:34:28.160Z,1.40
2022-09-18T14:37:02.248Z,1.23
2022-09-18T14:39:39.256Z,1.38
2022-09-18T14:42:22.373Z,1.67
2022-09-18T14:44:57.886Z,2.50
2022-09-18T14:47:28.065Z,6.60
2022-09-18T14:49:56.992Z,10.52
2022-09-18T14:52:33.513Z,3.85
2022-09-18T14:55:14.862Z,1.88
2022-09-18T14:57:56.259Z,2.30
2022-09-18T15:00:45.433Z,1.80
2022-09-18T15:03:33.801Z,2.40
2022-09-18T15:06:16.512Z,2.20
2022-09-18T15:08:46.254Z,1.73
2022-09-18T15:11:19.630Z,2.13
2022-09-18T15:13:50.189Z,1.80
2022-09-18T15:16:27.377Z,2.45
2022-09-18T15:18:55.876Z,1.63
2022-09-18T15:21:29.942Z,1.50
2022-09-18T15:24:02.493Z,1.30
2022-09-18T15:26:39.053Z,1.23
2022-09-18T15:29:12.828Z,1.45
2022-09-18T15:31:40.423Z,1.50
2022-09-18T15:34:36.846Z,1.55
2022-09-18T15:37:05.605Z,1.83
2022-09-18T15:39:38.815Z,1.30
2022-09-18T15:42:26.915Z,1.60
2022-09-18T15:45:15.834Z,1.48
2022-09-18T15:47:45.449Z,1.20
2022-09-18T15:50:12.664Z,1.23
2022-09-18T15:52:58.482Z,1.40
2022-09-18T15:55:32.083Z,1.70
2022-09-18T15:58:07.647Z,1.55
2022-09-18T16:00:39.965Z,2.22
2022-09-18T16:03:18.088Z,1.50
2022-09-18T16:05:57.896Z,1.40
2022-09-18T16:08:29.888Z,1.58
2022-09-18T16:10:59.847Z,1.63
2022-09-18T16:13:29.984Z,1.40
2022-09-18T16:16:11.459Z,1.40
2022-09-18T16:19:03.165Z,1.50
2022-09-18T16:21:30.810Z,1.50
2022-09-18T16:24:01.428Z,1.40
2022-09-18T16:26:30.877Z,1.40
2022-09-18T16:29:13.515Z,1.67
2022-09-18T16:31:40.874Z,1.48
2022-09-18T16:34:21.949Z,1.42
2022-09-18T16:36:50.481Z,1.63
2022-09-18T16:39:20.227Z,2.03
2022-09-18T16:41:48.767Z,1.60
2022-09-18T16:44:18.534Z,1.60
2022-09-18T16:46:59.054Z,1.67
2022-09-18T16:51:58.202Z,1.92
2022-09-18T16:56:57.458Z,1.63
2022-09-18T16:59:30.034Z,1.73
2022-09-18T17:02:04.197Z,1.60
2022-09-18T17:04:32.846Z,1.40
2022-09-18T17:07:00.850Z,1.67
2022-09-18T17:09:28.191Z,1.30
2022-09-18T17:11:57.963Z,1.70
2022-09-18T17:14:26.115Z,1.38
2022-09-18T17:16:54.614Z,1.92
2022-09-18T17:19:22.091Z,1.60
2022-09-18T17:21:49.770Z,1.70
2022-09-18T17:24:18.134Z,1.65
2022-09-18T17:26:45.737Z,1.85
2022-09-18T17:29:13.978Z,1.73
2022-09-18T17:31:41.409Z,1.40
2022-09-18T17:34:08.788Z,1.58
2022-09-18T17:36:38.106Z,1.30
2022-09-18T17:39:06.367Z,1.30
2022-09-18T17:41:34.071Z,1.40
2022-09-18T17:44:01.523Z,1.50
2022-09-18T17:46:28.792Z,1.80
2022-09-18T17:48:57.752Z,1.35
2022-09-18T17:51:28.702Z,1.50
2022-09-18T17:54:05.235Z,1.40
2022-09-18T17:56:34.240Z,1.38
2022-09-18T17:59:05.856Z,1.45
2022-09-18T18:01:36.896Z,1.50
2022-09-18T18:04:05.575Z,1.58
2022-09-18T18:06:33.547Z,1.60
2022-09-18T18:09:01.719Z,1.30
2022-09-18T18:11:29.760Z,1.35
2022-09-18T18:13:57.353Z,1.48
2022-09-18T18:16:28.896Z,1.40
2022-09-18T18:19:01.671Z,1.40
2022-09-18T18:21:30.191Z,1.50
2022-09-18T18:24:03.867Z,1.50
2022-09-18T18:26:32.124Z,2.45
2022-09-18T18:29:00.824Z,1.35
2022-09-18T18:31:28.758Z,1.38
2022-09-18T18:33:56.242Z,1.40
2022-09-18T18:36:26.358Z,1.33
2022-09-18T18:38:55.911Z,1.20
2022-09-18T18:41:25.868Z,1.40
2022-09-18T18:43:58.832Z,1.40
2022-09-18T18:46:28.763Z,1.50
2022-09-18T18:49:02.049Z,1.60
2022-09-18T18:51:34.813Z,1.75
2022-09-18T18:54:03.847Z,1.55
2022-09-18T18:56:34.290Z,1.20
2022-09-18T19:01:31.236Z,1.77
2022-09-18T19:04:06.723Z,1.35
2022-09-18T19:06:39.102Z,1.10
2022-09-18T19:09:20.663Z,1.88
2022-09-18T19:11:52.161Z,1.35
2022-09-18T19:14:29.227Z,1.30
2022-09-18T19:16:57.576Z,1.45
2022-09-18T19:19:28.444Z,1.42
2022-09-18T19:22:00.208Z,1.63
2022-09-18T19:24:28.814Z,2.00
2022-09-18T19:26:59.036Z,2.10
2022-09-18T19:29:26.584Z,10.85
2022-09-18T19:31:54.920Z,91.78
2022-09-18T19:34:24.833Z,140.45
2022-09-18T19:36:54.014Z,133.65
2022-09-18T19:39:24.049Z,83.13
2022-09-18T19:42:15.645Z,39.60
2022-09-18T19:44:49.334Z,6.80
2022-09-18T19:47:26.447Z,14.13
2022-09-18T19:49:55.742Z,14.63
2022-09-18T19:52:28.076Z,10.60
2022-09-18T19:54:57.123Z,5.18
2022-09-18T19:57:27.326Z,9.20
2022-09-18T19:59:57.419Z,10.25
2022-09-18T20:02:25.608Z,11.80
2022-09-18T20:05:08.997Z,13.43
2022-09-18T20:07:39.530Z,9.82
2022-09-18T20:10:36.803Z,8.43
2022-09-18T20:13:07.939Z,3.33
2022-09-18T20:15:36.802Z,3.03
2022-09-18T20:18:26.210Z,2.35
2022-09-18T20:21:21.991Z,3.85
2022-09-18T20:24:11.498Z,3.17
2022-09-18T20:27:17.096Z,2.75
2022-09-18T20:30:14.287Z,2.78
2022-09-18T20:35:38.480Z,2.22
2022-09-18T20:38:08.978Z,2.10
2022-09-18T20:43:04.595Z,2.33
2022-09-18T20:45:35.154Z,2.20
2022-09-18T20:48:04.369Z,1.92
2022-09-18T20:50:31.563Z,1.60
2022-09-18T20:53:03.683Z,2.25
2022-09-18T20:55:31.023Z,1.80
2022-09-18T20:58:02.166Z,1.80
2022-09-18T21:00:31.520Z,1.88
2022-09-18T21:03:00.599Z,1.60
2022-09-18T21:05:28.463Z,1.90
2022-09-18T21:08:04.653Z,1.65
2022-09-18T21:10:36.365Z,1.65
2022-09-18T21:16:58.503Z,1.35
2022-09-18T21:19:27.137Z,1.45
2022-09-18T21:21:54.535Z,1.65
2022-09-18T21:24:22.437Z,1.60
2022-09-18T21:33:02.079Z,1.33
2022-09-18T21:35:33.160Z,1.17
2022-09-18T21:38:01.304Z,1.00
2022-09-18T21:40:28.896Z,1.30
2022-09-18T21:42:56.379Z,1.25
2022-09-18T21:45:29.732Z,1.23
2022-09-18T21:47:57.496Z,1.20
2022-09-18T21:50:29.426Z,1.10
2022-09-18T21:53:01.405Z,1.20
2022-09-18T21:55:28.975Z,1.02
2022-09-18T21:57:56.327Z,1.30
2022-09-18T22:00:25.058Z,1.15
2022-09-18T22:02:54.857Z,1.20
2022-09-18T22:05:22.441Z,1.10
2022-09-18T22:07:50.195Z,1.63
2022-09-18T22:10:18.450Z,1.48
2022-09-18T22:12:45.867Z,1.17
2022-09-18T22:15:13.261Z,1.30
2022-09-18T22:17:40.578Z,1.30
2022-09-18T22:20:08.396Z,1.23
2022-09-18T22:22:36.491Z,1.48
2022-09-18T22:25:04.167Z,1.27
2022-09-18T22:27:31.851Z,1.33
2022-09-18T22:29:59.087Z,1.27
2022-09-18T22:32:26.538Z,1.10
2022-09-18T22:34:54.674Z,1.33
2022-09-18T22:37:22.527Z,1.20
2022-09-18T22:39:50.144Z,1.20
2022-09-18T22:42:18.609Z,1.50
2022-09-18T22:44:46.506Z,1.50
2022-09-18T22:47:14.020Z,1.25
2022-09-18T22:49:41.551Z,1.30
2022-09-18T22:52:08.816Z,1.45
2022-09-18T22:54:36.122Z,1.30
2022-09-18T22:57:03.485Z,1.30
2022-09-18T22:59:42.636Z,1.42
2022-09-18T23:02:12.184Z,1.30
2022-09-18T23:04:40.582Z,1.58
2022-09-18T23:07:07.894Z,1.27
2022-09-18T23:09:35.172Z,1.50
2022-09-18T23:12:02.746Z,1.50
2022-09-18T23:14:31.594Z,1.20
2022-09-18T23:17:00.752Z,1.10
2022-09-18T23:19:31.417Z,1.15
2022-09-18T23:24:27.049Z,1.58
2022-09-18T23:27:00.471Z,1.58
2022-09-18T23:29:29.125Z,1.92
2022-09-18T23:31:59.972Z,1.52
2022-09-18T23:34:30.590Z,1.65
2022-09-18T23:36:58.712Z,1.55
2022-09-18T23:39:28.988Z,1.75
2022-09-18T23:41:58.950Z,1.50
2022-09-18T23:44:28.783Z,1.48
2022-09-18T23:46:56.256Z,1.40
2022-09-18T23:49:24.025Z,2.10
2022-09-18T23:51:53.490Z,1.77
2022-09-18T23:54:23.579Z,1.50
2022-09-18T23:56:52.045Z,1.50
2022-09-18T23:59:23.110Z,1.83
